createdAt,value
2023-01-13T00:00:09.500Z,100774.66
2023-01-13T00:02:18.399Z,100769.03
2023-01-13T00:02:50.674Z,100770.84
2023-01-13T00:03:23.120Z,100765.44
2023-01-13T00:03:58.106Z,100777.63
2023-01-13T00:04:30.322Z,100770.53
2023-01-13T00:05:02.515Z,100777.31
2023-01-13T00:05:37.306Z,100777.94
2023-01-13T00:06:35.136Z,100776.31
2023-01-13T00:08:24.821Z,100773.66
2023-01-13T00:08:57.943Z,100775.28
2023-01-13T00:09:30.103Z,100768.72
2023-01-13T00:10:04.872Z,100780.09
2023-01-13T00:10:37.138Z,100774.66
2023-01-13T00:11:10.385Z,100783.22
2023-01-13T00:11:47.817Z,100774.66
2023-01-13T00:12:20.337Z,100774.00
2023-01-13T00:12:53.687Z,100786.84
2023-01-13T00:13:29.471Z,100781.75
2023-01-13T00:14:14.430Z,100786.50
2023-01-13T00:14:46.718Z,100785.84
2023-01-13T00:15:21.491Z,100788.66
2023-01-13T00:15:59.021Z,100795.53
2023-01-13T00:16:33.162Z,100791.09
2023-01-13T00:17:08.133Z,100785.84
2023-01-13T00:17:40.406Z,100784.34
2023-01-13T00:18:12.556Z,100781.88
2023-01-13T00:18:48.135Z,100782.84
2023-01-13T00:19:35.293Z,100780.53
2023-01-13T00:20:12.504Z,100778.59
2023-01-13T00:20:44.666Z,100777.56
2023-01-13T00:21:19.505Z,100773.13
2023-01-13T00:21:54.336Z,100778.25
2023-01-13T00:22:26.560Z,100777.09
2023-01-13T00:23:03.876Z,100772.50
2023-01-13T00:23:58.368Z,100774.31
2023-01-13T00:24:30.592Z,100778.44
2023-01-13T00:25:07.782Z,100776.63
2023-01-13T00:25:39.916Z,100778.13
2023-01-13T00:26:13.802Z,100773.50
2023-01-13T00:26:48.639Z,100771.56
2023-01-13T00:27:25.120Z,100775.84
2023-01-13T00:27:57.344Z,100771.41
2023-01-13T00:28:32.675Z,100780.09
2023-01-13T00:29:07.421Z,100777.31
2023-01-13T00:29:39.582Z,100776.34
2023-01-13T00:30:15.482Z,100778.97
2023-01-13T00:30:47.941Z,100777.16
2023-01-13T00:31:21.403Z,100780.63
2023-01-13T00:31:56.133Z,100776.97
2023-01-13T00:32:28.611Z,100780.63
2023-01-13T00:33:00.901Z,100782.25
2023-01-13T00:33:33.180Z,100777.81
2023-01-13T00:34:08.080Z,100773.38
2023-01-13T00:34:40.189Z,100776.97
2023-01-13T00:35:12.311Z,100770.09
2023-01-13T00:38:26.492Z,100781.06
2023-01-13T00:38:59.568Z,100775.97
2023-01-13T00:39:31.737Z,100783.06
2023-01-13T00:40:06.784Z,100778.59
2023-01-13T00:45:20.479Z,100776.13
2023-01-13T00:45:52.784Z,100777.78
2023-01-13T00:46:25.017Z,100767.09
2023-01-13T00:46:59.744Z,100770.72
2023-01-13T00:47:34.600Z,100768.91
2023-01-13T00:48:07.033Z,100774.81
2023-01-13T00:48:42.285Z,100769.25
2023-01-13T00:49:14.564Z,100767.09
2023-01-13T00:49:46.795Z,100765.13
2023-01-13T00:50:21.734Z,100772.72
2023-01-13T00:50:57.673Z,100772.53
2023-01-13T00:51:30.024Z,100773.38
2023-01-13T00:52:04.724Z,100765.47
2023-01-13T00:52:36.862Z,100775.03
2023-01-13T00:53:09.087Z,100772.25
2023-01-13T00:53:46.027Z,100766.50
2023-01-13T00:54:18.896Z,100771.75
2023-01-13T00:54:54.047Z,100765.97
2023-01-13T00:55:29.989Z,100771.22
2023-01-13T00:56:03.777Z,100778.63
2023-01-13T00:56:40.808Z,100767.28
2023-01-13T00:57:16.185Z,100772.03
2023-01-13T00:57:48.354Z,100778.47
2023-01-13T00:58:20.498Z,100772.69
2023-01-13T00:58:57.203Z,100770.38
2023-01-13T00:59:29.332Z,100767.75
2023-01-13T01:00:10.623Z,100758.38
2023-01-13T01:00:48.217Z,100766.56
2023-01-13T01:01:22.428Z,100764.75
2023-01-13T01:01:54.733Z,100771.53
2023-01-13T01:02:29.619Z,100775.16
2023-01-13T01:03:01.901Z,100767.25
2023-01-13T01:03:34.204Z,100761.66
2023-01-13T01:04:09.417Z,100764.97
2023-01-13T01:04:41.556Z,100766.63
2023-01-13T01:05:13.669Z,100764.78
2023-01-13T01:05:48.505Z,100761.34
2023-01-13T01:06:22.629Z,100758.84
2023-01-13T01:06:54.845Z,100756.06
2023-01-13T01:07:29.557Z,100759.34
2023-01-13T01:08:02.051Z,100754.09
2023-01-13T01:13:24.942Z,100754.56
2023-01-13T01:13:58.927Z,100750.13
2023-01-13T01:14:32.427Z,100751.78
2023-01-13T01:15:10.204Z,100757.88
2023-01-13T01:15:44.961Z,100753.44
2023-01-13T01:16:18.550Z,100751.44
2023-01-13T01:16:53.413Z,100751.13
2023-01-13T01:17:25.610Z,100747.50
2023-01-13T01:17:57.744Z,100750.81
2023-01-13T01:18:32.539Z,100746.53
2023-01-13T01:19:05.249Z,100745.06
2023-01-13T01:19:40.212Z,100743.41
2023-01-13T01:20:13.061Z,100746.88
2023-01-13T01:24:16.786Z,100746.16
2023-01-13T01:24:48.964Z,100735.13
2023-01-13T01:25:21.115Z,100740.06
2023-01-13T01:25:55.800Z,100748.81
2023-01-13T01:26:29.507Z,100743.69
2023-01-13T01:27:04.295Z,100741.06
2023-01-13T01:27:37.591Z,100745.34
2023-01-13T01:28:09.861Z,100745.34
2023-01-13T01:28:42.533Z,100741.72
2023-01-13T01:29:18.251Z,100743.38
2023-01-13T01:29:50.507Z,100740.91
2023-01-13T01:30:22.666Z,100745.50
2023-01-13T01:31:00.505Z,100744.38
2023-01-13T01:31:33.749Z,100742.84
2023-01-13T01:32:09.214Z,100738.41
2023-01-13T01:32:41.407Z,100735.78
2023-01-13T01:33:13.525Z,100736.63
2023-01-13T01:33:47.519Z,100743.53
2023-01-13T01:34:22.299Z,100740.75
2023-01-13T01:34:57.512Z,100738.13
2023-01-13T01:35:29.638Z,100738.13
2023-01-13T01:36:26.928Z,100733.16
2023-01-13T01:36:59.058Z,100731.19
2023-01-13T01:37:31.260Z,100733.00
2023-01-13T01:38:06.046Z,100733.81
2023-01-13T01:38:38.934Z,100733.97
2023-01-13T01:39:11.373Z,100724.59
2023-01-13T01:39:46.266Z,100726.41
2023-01-13T01:40:18.690Z,100731.81
2023-01-13T01:40:50.869Z,100731.81
2023-01-13T01:41:29.669Z,100725.56
2023-01-13T01:42:16.819Z,100729.03
2023-01-13T01:43:04.056Z,100719.47
2023-01-13T01:44:06.005Z,100732.16
2023-01-13T01:45:02.052Z,100726.34
2023-01-13T01:45:37.082Z,100722.09
2023-01-13T01:46:11.794Z,100724.53
2023-01-13T01:46:45.208Z,100727.84
2023-01-13T01:47:38.917Z,100730.16
2023-01-13T01:48:11.903Z,100722.94
2023-01-13T01:48:44.150Z,100729.69
2023-01-13T01:49:22.500Z,100720.66
2023-01-13T01:49:56.735Z,100727.72
2023-01-13T01:50:32.842Z,100734.78
2023-01-13T01:51:22.659Z,100733.97
2023-01-13T01:51:58.347Z,100733.81
2023-01-13T01:52:34.070Z,100727.53
2023-01-13T01:53:13.034Z,100723.09
2023-01-13T01:53:45.409Z,100725.59
2023-01-13T01:55:55.769Z,100724.41
2023-01-13T01:56:29.493Z,100726.22
2023-01-13T01:57:05.088Z,100730.50
2023-01-13T01:57:47.505Z,100722.44
2023-01-13T01:58:25.175Z,100723.94
2023-01-13T01:59:00.014Z,100721.00
2023-01-13T01:59:35.866Z,100727.72
2023-01-13T02:00:13.367Z,100723.28
2023-01-13T02:00:48.126Z,100726.75
2023-01-13T02:01:23.032Z,100722.63
2023-01-13T02:01:55.450Z,100726.25
2023-01-13T02:02:31.009Z,100728.06
2023-01-13T02:03:04.449Z,100724.41
2023-01-13T02:03:39.857Z,100725.94
2023-01-13T02:04:17.949Z,100721.63
2023-01-13T02:04:53.536Z,100723.63
2023-01-13T02:05:25.693Z,100716.38
2023-01-13T02:06:00.419Z,100721.50
2023-01-13T02:06:32.801Z,100722.13
2023-01-13T02:07:05.301Z,100718.53
2023-01-13T02:07:44.450Z,100720.00
2023-01-13T02:08:18.545Z,100716.38
2023-01-13T02:08:53.524Z,100719.69
2023-01-13T02:09:29.117Z,100723.78
2023-01-13T02:10:05.505Z,100719.03
2023-01-13T02:10:39.966Z,100717.22
2023-01-13T02:11:44.781Z,100727.75
2023-01-13T02:12:34.920Z,100715.75
2023-01-13T02:13:10.699Z,100722.97
2023-01-13T02:13:42.933Z,100711.31
2023-01-13T02:14:15.413Z,100711.13
2023-01-13T02:14:53.828Z,100717.06
2023-01-13T02:15:34.426Z,100719.38
2023-01-13T02:16:27.514Z,100715.75
2023-01-13T02:17:16.366Z,100713.44
2023-01-13T02:18:11.590Z,100716.44
2023-01-13T02:18:56.203Z,100713.13
2023-01-13T02:20:00.925Z,100718.88
2023-01-13T02:20:50.743Z,100716.44
2023-01-13T02:21:54.904Z,100711.16
2023-01-13T02:22:44.387Z,100712.47
2023-01-13T02:24:02.129Z,100712.13
2023-01-13T02:24:56.943Z,100715.56
2023-01-13T02:26:02.058Z,100719.19
2023-01-13T02:27:08.148Z,100710.47
2023-01-13T02:28:03.260Z,100704.19
2023-01-13T02:29:16.576Z,100703.88
2023-01-13T02:30:28.863Z,100699.44
2023-01-13T02:31:22.658Z,100703.22
2023-01-13T02:32:06.321Z,100696.81
2023-01-13T02:32:52.418Z,100706.19
2023-01-13T02:33:36.952Z,100697.31
2023-01-13T02:34:12.800Z,100707.50
2023-01-13T02:34:57.051Z,100695.84
2023-01-13T02:35:40.323Z,100695.66
2023-01-13T02:36:20.157Z,100698.13
2023-01-13T02:37:01.045Z,100697.16
2023-01-13T02:37:39.339Z,100698.63
2023-01-13T02:38:15.534Z,100699.63
2023-01-13T02:38:57.584Z,100696.00
2023-01-13T02:39:38.620Z,100688.91
2023-01-13T02:40:17.489Z,100698.63
2023-01-13T02:40:59.546Z,100697.63
2023-01-13T02:41:53.913Z,100697.63
2023-01-13T02:42:47.515Z,100696.81
2023-01-13T02:43:41.388Z,100689.88
2023-01-13T02:44:20.289Z,100696.81
2023-01-13T02:44:59.327Z,100698.47
2023-01-13T02:45:40.567Z,100694.84
2023-01-13T02:46:18.409Z,100696.50
2023-01-13T02:46:55.264Z,100699.78
2023-01-13T02:47:33.326Z,100696.31
2023-01-13T02:48:08.098Z,100698.81
2023-01-13T02:48:42.678Z,100693.53
2023-01-13T02:49:24.299Z,100697.00
2023-01-13T02:50:02.301Z,100696.00
2023-01-13T02:50:42.155Z,100694.34
2023-01-13T02:51:17.686Z,100691.72
2023-01-13T02:51:54.259Z,100696.00
2023-01-13T02:52:34.533Z,100687.09
2023-01-13T02:53:13.074Z,100687.09
2023-01-13T02:53:51.067Z,100695.69
2023-01-13T02:54:31.299Z,100694.69
2023-01-13T02:57:18.794Z,100691.72
2023-01-13T02:57:58.770Z,100696.16
2023-01-13T02:58:32.782Z,100691.06
2023-01-13T02:59:08.383Z,100691.22
2023-01-13T02:59:41.764Z,100690.22
2023-01-13T03:00:21.299Z,100694.34
2023-01-13T03:00:54.272Z,100683.81
2023-01-13T03:01:29.731Z,100689.72
2023-01-13T03:02:05.702Z,100693.88
2023-01-13T03:02:38.796Z,100687.78
2023-01-13T03:03:10.928Z,100686.59
2023-01-13T03:03:47.034Z,100687.28
2023-01-13T03:04:45.867Z,100690.56
2023-01-13T03:05:20.575Z,100693.38
2023-01-13T03:06:14.182Z,100692.19
2023-01-13T03:07:01.686Z,100692.06
2023-01-13T03:08:05.078Z,100685.94
2023-01-13T03:10:17.825Z,100686.09
2023-01-13T03:11:09.016Z,100699.28
2023-01-13T03:11:58.165Z,100696.00
2023-01-13T03:12:42.629Z,100698.94
2023-01-13T03:13:59.511Z,100693.03
2023-01-13T03:14:44.221Z,100693.19
2023-01-13T03:15:28.564Z,100693.38
2023-01-13T03:16:09.810Z,100698.81
2023-01-13T03:19:24.877Z,100691.38
2023-01-13T03:20:00.457Z,100682.31
2023-01-13T03:20:39.603Z,100691.88
2023-01-13T03:21:21.284Z,100686.44
2023-01-13T03:21:57.567Z,100691.53
2023-01-13T03:24:16.749Z,100683.97
2023-01-13T03:24:55.863Z,100691.72
2023-01-13T03:25:36.053Z,100685.47
2023-01-13T03:26:14.020Z,100688.75
2023-01-13T03:26:51.848Z,100681.81
2023-01-13T03:27:29.133Z,100688.09
2023-01-13T03:28:04.946Z,100689.09
2023-01-13T03:28:44.169Z,100678.06
2023-01-13T03:29:20.735Z,100687.94
2023-01-13T03:29:59.243Z,100689.72
2023-01-13T03:30:43.729Z,100681.81
2023-01-13T03:31:22.921Z,100686.47
2023-01-13T03:31:59.921Z,100683.63
2023-01-13T03:32:38.480Z,100684.47
2023-01-13T03:33:16.343Z,100686.94
2023-01-13T03:33:55.500Z,100686.75
2023-01-13T03:35:45.713Z,100681.34
2023-01-13T03:36:25.867Z,100688.09
2023-01-13T03:37:01.773Z,100683.63
2023-01-13T03:37:37.747Z,100686.94
2023-01-13T03:38:16.289Z,100692.22
2023-01-13T03:38:52.243Z,100691.22
2023-01-13T03:39:41.924Z,100684.16
2023-01-13T03:40:20.235Z,100684.16
2023-01-13T03:41:33.433Z,100692.69
2023-01-13T03:42:13.531Z,100688.59
2023-01-13T03:43:04.273Z,100690.41
2023-01-13T03:43:54.103Z,100679.19
2023-01-13T03:44:32.863Z,100689.72
2023-01-13T03:45:51.788Z,100681.19
2023-01-13T03:46:35.059Z,100683.81
2023-01-13T03:47:14.414Z,100684.47
2023-01-13T03:47:53.562Z,100675.56
2023-01-13T03:48:28.214Z,100683.31
2023-01-13T03:49:03.259Z,100682.16
2023-01-13T03:49:44.055Z,100674.91
2023-01-13T03:50:20.884Z,100674.72
2023-01-13T03:50:57.255Z,100684.13
2023-01-13T03:51:35.789Z,100679.50
2023-01-13T03:55:09.222Z,100681.66
2023-01-13T03:55:47.280Z,100677.22
2023-01-13T03:56:25.616Z,100682.97
2023-01-13T03:57:05.224Z,100683.47
2023-01-13T03:57:43.756Z,100691.22
2023-01-13T03:58:21.620Z,100689.41
2023-01-13T03:58:57.223Z,100676.22
2023-01-13T03:59:33.315Z,100685.78
2023-01-13T04:00:10.534Z,100677.69
2023-01-13T04:02:40.615Z,100689.41
2023-01-13T04:03:18.426Z,100676.88
2023-01-13T04:03:59.665Z,100683.78
2023-01-13T04:04:39.866Z,100681.97
2023-01-13T04:05:14.593Z,100690.72
2023-01-13T04:05:55.352Z,100688.75
2023-01-13T04:06:36.035Z,100680.84
2023-01-13T04:07:16.388Z,100684.31
2023-01-13T04:07:58.966Z,100683.78
2023-01-13T04:08:34.345Z,100685.44
2023-01-13T04:09:14.766Z,100689.38
2023-01-13T04:09:52.060Z,100686.28
2023-01-13T04:10:28.073Z,100685.28
2023-01-13T04:11:05.764Z,100684.13
2023-01-13T04:11:45.658Z,100685.78
2023-01-13T04:12:24.046Z,100690.06
2023-01-13T04:13:01.871Z,100690.06
2023-01-13T04:13:41.964Z,100690.69
2023-01-13T04:14:25.343Z,100684.59
2023-01-13T04:15:00.365Z,100686.44
2023-01-13T04:15:39.048Z,100687.91
2023-01-13T04:16:29.640Z,100688.72
2023-01-13T04:17:24.763Z,100686.25
2023-01-13T04:19:35.388Z,100689.88
2023-01-13T04:20:08.608Z,100687.22
2023-01-13T04:20:41.627Z,100694.00
2023-01-13T04:21:39.687Z,100692.19
2023-01-13T04:22:11.963Z,100684.59
2023-01-13T04:22:44.117Z,100689.88
2023-01-13T04:23:20.049Z,100689.72
2023-01-13T04:23:52.165Z,100687.91
2023-01-13T04:24:24.247Z,100688.53
2023-01-13T04:24:58.933Z,100686.56
2023-01-13T04:25:31.141Z,100680.31
2023-01-13T04:26:03.258Z,100690.69
2023-01-13T04:26:38.026Z,100687.06
2023-01-13T04:27:10.139Z,100689.69
2023-01-13T04:27:42.216Z,100691.34
2023-01-13T04:28:17.879Z,100696.47
2023-01-13T04:28:50.097Z,100685.72
2023-01-13T04:29:22.274Z,100678.50
2023-01-13T04:29:56.950Z,100684.59
2023-01-13T04:30:29.161Z,100684.41
2023-01-13T04:31:03.973Z,100693.13
2023-01-13T04:31:39.304Z,100685.22
2023-01-13T04:32:11.383Z,100688.88
2023-01-13T04:32:59.978Z,100679.94
2023-01-13T04:33:32.259Z,100681.13
2023-01-13T04:34:04.374Z,100685.41
2023-01-13T04:34:43.495Z,100686.25
2023-01-13T04:35:32.550Z,100683.75
2023-01-13T04:36:10.491Z,100682.09
2023-01-13T04:36:45.233Z,100684.75
2023-01-13T04:37:32.289Z,100683.09
2023-01-13T04:38:05.996Z,100689.19
2023-01-13T04:38:40.774Z,100687.22
2023-01-13T04:39:13.117Z,100690.50
2023-01-13T04:39:46.572Z,100687.88
2023-01-13T04:40:23.539Z,100691.19
2023-01-13T04:41:13.676Z,100688.69
2023-01-13T04:42:03.452Z,100684.75
2023-01-13T04:42:38.149Z,100683.28
2023-01-13T04:43:21.743Z,100686.75
2023-01-13T04:43:53.856Z,100683.75
2023-01-13T04:44:35.224Z,100686.06
2023-01-13T04:45:10.067Z,100684.41
2023-01-13T04:45:42.546Z,100692.16
2023-01-13T04:46:17.905Z,100688.53
2023-01-13T04:46:53.107Z,100684.09
2023-01-13T04:47:25.269Z,100679.63
2023-01-13T04:47:57.680Z,100685.56
2023-01-13T04:48:32.333Z,100679.28
2023-01-13T04:49:04.494Z,100681.94
2023-01-13T04:49:39.173Z,100682.09
2023-01-13T04:50:14.397Z,100680.47
2023-01-13T04:50:46.529Z,100677.81
2023-01-13T04:51:21.203Z,100681.44
2023-01-13T04:51:53.462Z,100682.28
2023-01-13T04:52:25.607Z,100678.97
2023-01-13T04:52:58.933Z,100679.13
2023-01-13T04:53:33.661Z,100673.06
2023-01-13T04:54:06.033Z,100682.78
2023-01-13T04:54:38.131Z,100681.13
2023-01-13T04:55:10.839Z,100675.03
2023-01-13T04:55:47.934Z,100680.28
2023-01-13T04:56:20.056Z,100684.75
2023-01-13T04:56:52.250Z,100684.41
2023-01-13T04:57:26.933Z,100675.03
2023-01-13T04:58:03.511Z,100682.09
2023-01-13T04:58:38.174Z,100679.63
2023-01-13T04:59:11.297Z,100684.91
2023-01-13T04:59:43.412Z,100684.75
2023-01-13T05:00:20.161Z,100682.25
2023-01-13T05:00:52.348Z,100685.91
2023-01-13T05:01:24.642Z,100682.25
2023-01-13T05:01:59.452Z,100687.72
2023-01-13T05:03:48.194Z,100686.56
2023-01-13T05:04:20.422Z,100689.06
2023-01-13T05:04:57.815Z,100688.03
2023-01-13T05:05:31.228Z,100686.22
2023-01-13T05:06:06.037Z,100686.06
2023-01-13T05:06:38.154Z,100692.03
2023-01-13T05:07:10.282Z,100689.38
2023-01-13T05:07:44.986Z,100687.53
2023-01-13T05:08:17.372Z,100684.09
2023-01-13T05:08:51.136Z,100686.41
2023-01-13T05:09:28.674Z,100689.03
2023-01-13T05:10:02.153Z,100690.69
2023-01-13T05:10:34.266Z,100690.69
2023-01-13T05:11:29.400Z,100684.41
2023-01-13T05:12:16.742Z,100691.84
2023-01-13T05:13:04.049Z,100692.81
2023-01-13T05:13:51.357Z,100697.31
2023-01-13T05:14:38.801Z,100698.91
2023-01-13T05:15:27.584Z,100696.13
2023-01-13T05:16:18.944Z,100695.97
2023-01-13T05:17:04.687Z,100698.41
2023-01-13T05:17:37.153Z,100701.88
2023-01-13T05:18:09.892Z,100696.28
2023-01-13T05:18:44.935Z,100696.94
2023-01-13T05:19:17.106Z,100703.19
2023-01-13T05:19:49.391Z,100693.47
2023-01-13T05:20:27.327Z,100694.44
2023-01-13T05:20:59.656Z,100697.44
2023-01-13T05:21:46.835Z,100691.34
2023-01-13T05:22:34.143Z,100698.59
2023-01-13T05:23:33.548Z,100693.50
2023-01-13T05:24:21.373Z,100695.31
2023-01-13T05:25:08.663Z,100696.47
2023-01-13T05:25:46.435Z,100704.53
2023-01-13T05:26:18.813Z,100697.59
2023-01-13T05:26:51.187Z,100699.09
2023-01-13T05:27:26.033Z,100695.97
2023-01-13T05:27:59.845Z,100692.69
2023-01-13T05:28:35.944Z,100696.97
2023-01-13T05:29:08.185Z,100695.16
2023-01-13T05:29:43.127Z,100701.06
2023-01-13T05:30:19.033Z,100691.34
2023-01-13T05:30:52.737Z,100696.47
2023-01-13T05:31:27.556Z,100696.28
2023-01-13T07:13:41.500Z,100713.28
2023-01-13T07:14:28.419Z,100714.78
2023-01-13T07:15:15.825Z,100713.44
2023-01-13T07:15:59.031Z,100709.50
2023-01-13T07:16:31.244Z,100715.25
2023-01-13T07:17:03.466Z,100714.97
2023-01-13T07:17:38.262Z,100714.78
2023-01-13T07:18:10.372Z,100718.09
2023-01-13T07:18:45.102Z,100710.00
2023-01-13T07:19:23.315Z,100714.13
2023-01-13T07:19:55.427Z,100717.09
2023-01-13T07:20:34.028Z,100713.13
2023-01-13T07:21:08.331Z,100718.91
2023-01-13T07:21:54.381Z,100717.56
2023-01-13T07:23:01.321Z,100714.59
2023-01-13T07:23:36.588Z,100720.38
2023-01-13T07:24:11.424Z,100717.41
2023-01-13T07:24:43.549Z,100725.81
2023-01-13T07:25:15.708Z,100727.31
2023-01-13T07:25:50.505Z,100719.06
2023-01-13T07:26:22.587Z,100725.97
2023-01-13T07:26:59.782Z,100726.81
2023-01-13T07:27:38.564Z,100722.53
2023-01-13T07:28:13.448Z,100727.44
2023-01-13T07:28:48.085Z,100727.28
2023-01-13T07:29:22.909Z,100723.66
2023-01-13T07:29:55.019Z,100727.63
2023-01-13T07:30:27.124Z,100735.19
2023-01-13T07:31:02.391Z,100726.09
2023-01-13T07:31:34.554Z,100729.41
2023-01-13T07:32:08.048Z,100724.81
2023-01-13T07:32:55.397Z,100729.91
2023-01-13T07:33:33.144Z,100732.19
2023-01-13T07:34:05.537Z,100733.53
2023-01-13T07:34:40.272Z,100728.06
2023-01-13T07:35:12.495Z,100732.19
2023-01-13T07:35:44.674Z,100735.66
2023-01-13T07:36:19.400Z,100731.19
2023-01-13T07:37:08.428Z,100731.53
2023-01-13T07:37:46.367Z,100735.81
2023-01-13T07:38:18.512Z,100734.00
2023-01-13T07:39:09.150Z,100729.56
2023-01-13T07:39:41.045Z,100733.34
2023-01-13T07:40:13.482Z,100720.97
2023-01-13T07:40:48.240Z,100724.91
2023-01-13T07:41:35.356Z,100728.22
2023-01-13T07:43:38.666Z,100729.69
2023-01-13T07:44:13.476Z,100722.44
2023-01-13T07:44:49.050Z,100722.25
2023-01-13T07:45:21.149Z,100726.38
2023-01-13T07:45:58.957Z,100722.75
2023-01-13T07:46:31.394Z,100721.59
2023-01-13T07:47:06.352Z,100715.31
2023-01-13T07:47:54.037Z,100719.78
2023-01-13T07:48:28.837Z,100723.25
2023-01-13T07:49:00.950Z,100722.25
2023-01-13T07:49:33.305Z,100722.06
2023-01-13T07:50:09.229Z,100720.91
2023-01-13T07:50:44.024Z,100721.56
2023-01-13T07:51:19.131Z,100725.19
2023-01-13T07:51:51.248Z,100724.19
2023-01-13T07:52:23.366Z,100724.88
2023-01-13T07:53:00.873Z,100716.94
2023-01-13T07:53:33.316Z,100721.25
2023-01-13T07:54:08.204Z,100714.13
2023-01-13T07:54:41.377Z,100719.41
2023-01-13T07:55:13.819Z,100718.59
2023-01-13T07:55:48.494Z,100720.41
2023-01-13T07:56:20.659Z,100726.31
2023-01-13T07:56:52.871Z,100721.72
2023-01-13T07:57:27.623Z,100719.72
2023-01-13T07:57:59.767Z,100722.19
2023-01-13T07:58:36.004Z,100723.84
2023-01-13T07:59:08.164Z,100736.06
2023-01-13T07:59:45.534Z,100724.47
2023-01-13T08:00:19.083Z,100728.31
2023-01-13T08:00:51.622Z,100731.09
2023-01-13T08:01:27.841Z,100727.63
2023-01-13T08:02:00.395Z,100732.91
2023-01-13T08:02:35.267Z,100736.38
2023-01-13T08:03:07.535Z,100730.47
2023-01-13T08:03:42.507Z,100735.75
2023-01-13T08:04:14.736Z,100731.44
2023-01-13T08:04:49.388Z,100726.16
2023-01-13T08:05:21.503Z,100734.09
2023-01-13T08:05:53.638Z,100729.63
2023-01-13T08:06:28.750Z,100737.56
2023-01-13T08:07:00.823Z,100733.44
2023-01-13T08:07:35.884Z,100732.28
2023-01-13T08:08:08.059Z,100734.25
2023-01-13T08:08:43.154Z,100731.44
2023-01-13T08:09:15.303Z,100736.72
2023-01-13T08:09:47.465Z,100735.06
2023-01-13T08:10:22.393Z,100735.06
2023-01-13T08:10:54.634Z,100731.97
2023-01-13T08:11:29.651Z,100733.78
2023-01-13T08:12:16.760Z,100732.13
2023-01-13T08:13:04.089Z,100731.28
2023-01-13T08:13:37.174Z,100727.66
2023-01-13T08:14:11.940Z,100724.19
2023-01-13T08:14:46.780Z,100724.03
2023-01-13T08:16:59.879Z,100722.88
2023-01-13T08:17:32.061Z,100717.78
2023-01-13T08:18:07.038Z,100721.88
2023-01-13T08:18:41.199Z,100718.25
2023-01-13T08:19:16.166Z,100719.06
2023-01-13T08:19:48.568Z,100723.38
2023-01-13T08:20:20.731Z,100725.00
2023-01-13T08:20:56.006Z,100722.19
2023-01-13T08:21:28.435Z,100717.75
2023-01-13T08:22:00.562Z,100722.84
2023-01-13T08:22:35.631Z,100717.38
2023-01-13T08:23:10.980Z,100716.25
2023-01-13T08:23:46.984Z,100718.88
2023-01-13T08:24:19.071Z,100706.66
2023-01-13T08:24:51.255Z,100719.03
2023-01-13T08:25:26.390Z,100714.59
2023-01-13T08:27:35.406Z,100708.84
2023-01-13T08:28:08.198Z,100715.44
2023-01-13T08:28:43.215Z,100716.25
2023-01-13T08:29:15.600Z,100713.59
2023-01-13T08:29:50.308Z,100708.31
2023-01-13T08:30:25.571Z,100707.69
2023-01-13T08:31:00.003Z,100710.34
2023-01-13T08:31:34.976Z,100714.63
2023-01-13T08:32:07.104Z,100706.69
2023-01-13T08:32:39.290Z,100711.97
2023-01-13T08:33:15.634Z,100710.66
2023-01-13T08:33:50.963Z,100698.28
2023-01-13T08:34:28.146Z,100711.28
2023-01-13T08:35:00.302Z,100709.31
2023-01-13T08:35:32.588Z,100706.66
2023-01-13T08:36:09.708Z,100708.94
2023-01-13T08:36:41.933Z,100705.31
2023-01-13T08:37:14.094Z,100705.97
2023-01-13T08:37:50.009Z,100704.81
2023-01-13T08:38:23.376Z,100709.25
2023-01-13T08:38:58.097Z,100707.09
2023-01-13T08:39:30.523Z,100718.50
2023-01-13T08:40:02.726Z,100706.13
2023-01-13T08:40:37.647Z,100709.41
2023-01-13T08:41:10.685Z,100706.59
2023-01-13T08:41:56.214Z,100704.59
2023-01-13T08:42:33.811Z,100712.19
2023-01-13T08:43:27.606Z,100709.53
2023-01-13T08:44:21.700Z,100706.53
2023-01-13T08:44:59.200Z,100702.91
2023-01-13T08:45:31.937Z,100706.22
2023-01-13T08:46:04.960Z,100706.22
2023-01-13T08:46:40.125Z,100704.19
2023-01-13T08:47:12.272Z,100709.16
2023-01-13T08:47:44.805Z,100708.34
2023-01-13T08:48:19.477Z,100703.06
2023-01-13T08:48:51.732Z,100704.66
2023-01-13T08:49:29.588Z,100701.88
2023-01-13T08:53:55.122Z,100703.16
2023-01-13T08:54:27.289Z,100703.81
2023-01-13T08:54:59.433Z,100701.19
2023-01-13T08:55:34.256Z,100699.53
2023-01-13T08:56:11.013Z,100698.88
2023-01-13T08:56:44.374Z,100699.53
2023-01-13T08:57:24.507Z,100698.53
2023-01-13T08:58:14.311Z,100698.72
2023-01-13T08:58:49.881Z,100692.28
2023-01-13T08:59:22.092Z,100695.94
2023-01-13T08:59:59.417Z,100693.94
2023-01-13T09:00:31.722Z,100694.94
2023-01-13T09:01:08.777Z,100699.88
2023-01-13T09:01:41.335Z,100701.50
2023-01-13T09:02:23.539Z,100695.06
2023-01-13T09:02:55.893Z,100703.81
2023-01-13T09:03:30.641Z,100701.00
2023-01-13T09:04:02.911Z,100699.53
2023-01-13T09:04:40.395Z,100698.72
2023-01-13T09:05:12.642Z,100696.22
2023-01-13T09:05:50.158Z,100695.06
2023-01-13T09:06:30.119Z,100697.72
2023-01-13T09:07:07.550Z,100699.69
2023-01-13T09:07:39.855Z,100693.41
2023-01-13T09:08:15.340Z,100694.09
2023-01-13T09:08:58.492Z,100699.16
2023-01-13T09:09:33.232Z,100699.00
2023-01-13T09:10:07.871Z,100695.00
2023-01-13T09:10:43.171Z,100692.84
2023-01-13T09:11:33.707Z,100697.81
2023-01-13T09:12:21.377Z,100692.22
2023-01-13T09:13:08.571Z,100697.50
2023-01-13T09:13:40.686Z,100695.19
2023-01-13T09:14:12.858Z,100695.00
2023-01-13T09:14:50.516Z,100700.47
2023-01-13T09:15:25.303Z,100695.19
2023-01-13T09:16:00.164Z,100690.09
2023-01-13T09:16:33.548Z,100690.91
2023-01-13T09:17:05.811Z,100689.28
2023-01-13T09:17:40.480Z,100698.03
2023-01-13T09:18:13.605Z,100696.38
2023-01-13T09:18:48.389Z,100693.56
2023-01-13T09:19:20.518Z,100692.72
2023-01-13T09:19:52.629Z,100692.72
2023-01-13T09:20:28.056Z,100691.75
2023-01-13T09:21:00.325Z,100698.84
2023-01-13T09:21:38.123Z,100693.72
2023-01-13T09:22:30.416Z,100685.13
2023-01-13T09:24:15.753Z,100694.59
2023-01-13T09:24:48.093Z,100687.31
2023-01-13T09:25:22.926Z,100690.25
2023-01-13T09:25:55.044Z,100680.50
2023-01-13T09:26:27.232Z,100692.91
2023-01-13T09:27:01.969Z,100688.59
2023-01-13T09:27:34.115Z,100690.25
2023-01-13T09:28:10.173Z,100689.28
2023-01-13T09:28:42.399Z,100692.72
2023-01-13T09:29:38.527Z,100689.09
2023-01-13T09:30:11.980Z,100690.25
2023-01-13T09:30:49.406Z,100691.25
2023-01-13T09:31:21.758Z,100681.69
2023-01-13T09:31:54.110Z,100688.59
2023-01-13T09:32:43.876Z,100690.41
2023-01-13T09:33:31.395Z,100692.28
2023-01-13T09:34:19.790Z,100693.88
2023-01-13T09:35:07.799Z,100690.63